createdAt,value
2018-12-12T06:34:01.094Z,0.1
2018-12-12T06:36:01.266Z,0.2
2018-12-12T06:37:01.060Z,0.3
2018-12-12T06:39:01.380Z,0.4
2018-12-12T06:40:01.098Z,0.5
2018-12-12T06:42:01.368Z,0.6
2018-12-12T06:43:01.071Z,0.7
2018-12-12T06:44:01.097Z,0.8
2018-12-12T06:46:01.107Z,0.9
2018-12-12T06:47:01.220Z,1.1
2018-12-12T06:48:01.050Z,1.3
2018-12-12T06:49:01.083Z,1.6
2018-12-12T06:50:01.083Z,1.8
2018-12-12T06:51:01.106Z,2.1
2018-12-12T06:52:01.248Z,2.5
2018-12-12T06:53:01.047Z,3.0
2018-12-12T06:54:01.049Z,3.5
2018-12-12T06:55:01.091Z,4.2
2018-12-12T06:56:01.256Z,4.9
2018-12-12T06:57:01.228Z,5.7
2018-12-12T06:58:01.047Z,6.7
2018-12-12T06:59:01.047Z,7.8
2018-12-12T07:00:01.082Z,9.1
2018-12-12T07:01:01.105Z,10.6
2018-12-12T07:02:01.223Z,12.4
2018-12-12T07:03:01.084Z,14.5
2018-12-12T07:04:01.082Z,17.1
2018-12-12T07:05:02.268Z,20.1
2018-12-12T07:06:01.191Z,23.5
2018-12-12T07:07:01.329Z,27.5
2018-12-12T07:08:01.083Z,31.6
2018-12-12T07:09:01.087Z,36.5
2018-12-12T07:10:01.088Z,42.6
2018-12-12T07:11:01.114Z,50.3
2018-12-12T07:12:01.225Z,59.7
2018-12-12T07:13:01.244Z,70.5
2018-12-12T07:14:01.054Z,82.1
2018-12-12T07:15:01.092Z,94.1
2018-12-12T07:16:01.102Z,107.2
2018-12-12T07:17:01.227Z,121.3
2018-12-12T07:18:02.182Z,135.9
2018-12-12T07:19:01.086Z,149.7
2018-12-12T07:20:01.107Z,163.3
2018-12-12T07:21:01.059Z,176.9
2018-12-12T07:22:01.197Z,190.6
2018-12-12T07:23:06.100Z,205.0
2018-12-12T07:24:01.093Z,219.5
2018-12-12T07:25:01.143Z,234.1
2018-12-12T07:26:01.057Z,248.1
2018-12-12T07:27:01.196Z,262.6
2018-12-12T07:28:06.097Z,278.2
2018-12-12T07:29:01.088Z,295.5
2018-12-12T07:30:01.087Z,315.1
2018-12-12T07:31:02.079Z,335.7
2018-12-12T07:32:01.229Z,358.2
2018-12-12T07:33:06.107Z,384.5
2018-12-12T07:34:01.367Z,415.5
2018-12-12T07:35:01.058Z,449.6
2018-12-12T07:36:01.057Z,485.7
2018-12-12T07:37:01.237Z,523.3
2018-12-12T07:38:06.104Z,564.1
2018-12-12T07:39:01.096Z,609.3
2018-12-12T07:40:01.101Z,658.0
2018-12-12T07:41:01.090Z,709.9
2018-12-12T07:42:01.231Z,764.8
2018-12-12T07:43:06.094Z,823.7
2018-12-12T07:44:01.092Z,889.1
2018-12-12T07:45:01.095Z,962.8
2018-12-12T07:46:01.091Z,1047.1
2018-12-12T07:47:01.239Z,1142.1
2018-12-12T07:48:06.094Z,1245.7
2018-12-12T07:49:01.060Z,1356.8
2018-12-12T07:50:01.096Z,1476.5
2018-12-12T07:51:01.099Z,1610.1
2018-12-12T07:52:01.234Z,1769.1
2018-12-12T07:53:01.102Z,1959.3
2018-12-12T07:54:06.101Z,2178.4
2018-12-12T07:55:01.067Z,2421.7
2018-12-12T07:56:01.098Z,2688.1
2018-12-12T07:57:01.241Z,2973.9
2018-12-12T07:58:01.095Z,3274.2
2018-12-12T07:59:01.091Z,3587.7
2018-12-12T08:01:02.607Z,3941.1
2018-12-12T08:02:01.286Z,4305.6
2018-12-12T08:03:04.826Z,4678.7
2018-12-12T08:04:01.082Z,5056.5
2018-12-12T08:05:01.085Z,5442.0
2018-12-12T08:06:06.085Z,5843.1
2018-12-12T08:07:01.300Z,6250.9
2018-12-12T08:08:01.051Z,6646.9
2018-12-12T08:09:06.092Z,7005.7
2018-12-12T08:10:01.058Z,7330.7
2018-12-12T08:11:06.102Z,7644.6
2018-12-12T08:12:01.235Z,7955.9
2018-12-12T08:13:01.088Z,8262.1
2018-12-12T08:14:01.087Z,8570.3
2018-12-12T08:15:01.088Z,8888.1
2018-12-12T08:16:06.097Z,9198.6
2018-12-12T08:17:01.228Z,9535.2
2018-12-12T08:18:01.089Z,9891.5
2018-12-12T08:19:01.054Z,10259.8
2018-12-12T08:20:01.089Z,10631.3
2018-12-12T08:21:01.113Z,11001.1
2018-12-12T08:22:01.224Z,11390.7
2018-12-12T08:23:01.055Z,11838.6
2018-12-12T08:24:01.088Z,12371.8
2018-12-12T08:25:06.091Z,12980.5
2018-12-12T08:26:01.406Z,13623.2
2018-12-12T08:27:01.245Z,14264.1
2018-12-12T08:28:01.091Z,14894.4
2018-12-12T08:29:01.090Z,15505.3
2018-12-12T08:30:06.260Z,16092.0
2018-12-12T08:31:01.058Z,16646.0
2018-12-12T08:32:01.230Z,17169.2
2018-12-12T08:33:01.090Z,17663.2
2018-12-12T08:34:01.097Z,18127.7
2018-12-12T08:35:06.092Z,18585.7
2018-12-12T08:36:01.092Z,19058.6
2018-12-12T08:37:01.202Z,19522.2
2018-12-12T08:38:01.060Z,19937.3
2018-12-12T08:39:01.062Z,20295.3
2018-12-12T08:40:06.105Z,20599.3
2018-12-12T08:41:01.093Z,20850.4
2018-12-12T08:42:01.296Z,21070.0
2018-12-12T08:43:01.094Z,21287.1
2018-12-12T08:44:01.063Z,21499.5
2018-12-12T08:45:06.064Z,21693.7
2018-12-12T08:46:01.102Z,21883.5
2018-12-12T08:47:01.241Z,22064.7
2018-12-12T08:48:01.096Z,22246.0
2018-12-12T08:49:01.095Z,22439.1
2018-12-12T08:50:01.133Z,22618.1
2018-12-12T08:51:01.095Z,22744.7
2018-12-12T08:52:01.243Z,22811.0
2018-12-12T08:53:01.096Z,22833.9
2018-12-12T08:54:01.066Z,22825.3
2018-12-12T08:55:01.143Z,22790.5
2018-12-12T08:56:01.146Z,22751.1
2018-12-12T08:57:01.362Z,22726.1
2018-12-12T08:58:01.098Z,22713.6
2018-12-12T08:59:01.066Z,22719.7
2018-12-12T09:00:06.108Z,22744.2
2018-12-12T09:02:01.289Z,22863.4
2018-12-12T09:03:01.081Z,23005.9
2018-12-12T09:04:01.053Z,23122.2
2018-12-12T09:05:01.082Z,23205.0
2018-12-12T09:06:01.315Z,23310.1
2018-12-12T09:07:01.258Z,23455.5
2018-12-12T09:08:01.084Z,23635.1
2018-12-12T09:09:01.050Z,23863.2
2018-12-12T09:10:01.049Z,24119.4
2018-12-12T09:11:01.051Z,24404.6
2018-12-12T09:12:01.223Z,24670.6
2018-12-12T09:13:01.051Z,24921.1
2018-12-12T09:14:01.084Z,25182.6
2018-12-12T09:15:01.054Z,25429.9
2018-12-12T09:16:01.088Z,25653.2
2018-12-12T09:17:01.234Z,25758.5
2018-12-12T09:18:01.087Z,25839.1
2018-12-12T09:19:01.086Z,25931.0
2018-12-12T09:20:01.084Z,26042.9
2018-12-12T09:21:01.124Z,26206.2
2018-12-12T09:22:01.199Z,26416.3
2018-12-12T09:23:01.084Z,26617.3
2018-12-12T09:24:01.056Z,26776.5
2018-12-12T09:25:01.056Z,26928.9
2018-12-12T09:26:01.111Z,27041.1
2018-12-12T09:27:01.430Z,27189.9
2018-12-12T09:28:01.090Z,27430.3
2018-12-12T09:29:01.086Z,27710.3
2018-12-12T09:30:01.056Z,27955.0
2018-12-12T09:31:01.126Z,28162.0
2018-12-12T09:32:01.341Z,28357.7
2018-12-12T09:33:01.090Z,28527.4
2018-12-12T09:34:01.091Z,28692.9
2018-12-12T09:35:01.089Z,28888.5
2018-12-12T09:36:01.113Z,29053.3
2018-12-12T09:37:01.232Z,29198.1
2018-12-12T09:38:01.089Z,30071.4
2018-12-12T09:39:01.091Z,32356.9
2018-12-12T09:40:01.058Z,32969.5
2018-12-12T09:41:06.099Z,33338.3
2018-12-12T09:42:01.232Z,33753.9
2018-12-12T09:43:01.088Z,34242.3
2018-12-12T09:44:01.058Z,34470.5
2018-12-12T09:45:01.103Z,35007.5
2018-12-12T09:46:01.088Z,35462.1
2018-12-12T09:47:01.229Z,35936.9
2018-12-12T09:48:01.095Z,36402.7
2018-12-12T09:49:01.098Z,37492.6
2018-12-12T09:50:01.212Z,39774.8
2018-12-12T09:51:07.204Z,41678.9
2018-12-12T09:52:01.308Z,42796.3
2018-12-12T09:53:01.061Z,43467.3
2018-12-12T09:54:01.098Z,42990.9
2018-12-12T09:55:01.065Z,44847.2
2018-12-12T09:56:01.129Z,46962.7
2018-12-12T09:57:01.239Z,49019.6
2018-12-12T09:58:01.067Z,50921.7
2018-12-12T09:59:01.103Z,53014.6
2018-12-12T10:00:01.110Z,54830.3
2018-12-12T10:01:01.134Z,56782.3
2018-12-12T10:02:01.242Z,58741.9
2018-12-12T10:03:01.065Z,60727.1
2018-12-12T10:04:01.095Z,62094.3
2018-12-12T10:05:01.063Z,62240.2
2018-12-12T10:06:01.134Z,62719.2
2018-12-12T10:08:01.306Z,63782.3
2018-12-12T10:09:01.088Z,64035.5
2018-12-12T10:10:01.051Z,63883.3
2018-12-12T10:11:01.133Z,62828.7
2018-12-12T10:12:01.088Z,61472.0
2018-12-12T10:13:01.194Z,60069.2
2018-12-12T10:14:01.088Z,58738.7
2018-12-12T10:15:01.055Z,57210.8
2018-12-12T10:16:01.054Z,55718.1
2018-12-12T10:17:06.098Z,54753.3
2018-12-12T10:18:01.302Z,53788.1
2018-12-12T10:19:01.059Z,52917.1
2018-12-12T10:20:01.086Z,52773.5
2018-12-12T10:21:01.095Z,52652.3
2018-12-12T10:22:06.099Z,52494.7
2018-12-12T10:23:01.238Z,52243.3
2018-12-12T10:24:01.063Z,51491.4
2018-12-12T10:25:01.058Z,50303.9
2018-12-12T10:26:01.066Z,49204.8
2018-12-12T10:27:06.089Z,48373.8
2018-12-12T10:28:01.201Z,47599.3
2018-12-12T10:29:01.060Z,46774.3
2018-12-12T10:30:01.090Z,46200.8
2018-12-12T10:31:01.057Z,45731.5
2018-12-12T10:32:06.101Z,45091.0
2018-12-12T10:33:01.682Z,44748.7
2018-12-12T10:34:01.059Z,44612.9
2018-12-12T10:35:01.109Z,43561.5
2018-12-12T10:36:01.060Z,42429.0
2018-12-12T10:37:01.122Z,41354.4
2018-12-12T10:38:01.237Z,40711.3
2018-12-12T10:39:01.096Z,40829.5
2018-12-12T10:40:01.094Z,41980.6
2018-12-12T10:41:01.096Z,43368.7
2018-12-12T10:42:01.132Z,44969.5
2018-12-12T10:43:01.288Z,46672.7
2018-12-12T10:44:01.063Z,47825.1
2018-12-12T10:45:01.098Z,48413.3
2018-12-12T10:46:01.069Z,48404.3
2018-12-12T10:47:06.107Z,47954.8
2018-12-12T10:48:01.239Z,47280.9
2018-12-12T10:49:01.064Z,46407.1
2018-12-12T10:50:01.067Z,45716.3
2018-12-12T10:51:01.064Z,46690.7
2018-12-12T10:53:01.223Z,46013.8
2018-12-12T10:54:01.085Z,47055.5
2018-12-12T10:55:01.085Z,48365.5
2018-12-12T10:56:01.091Z,49230.1
2018-12-12T10:57:01.110Z,49995.7
2018-12-12T10:58:01.196Z,50167.1
2018-12-12T10:59:01.085Z,50641.2
2018-12-12T11:00:01.084Z,51644.3
2018-12-12T11:01:01.085Z,53157.5
2018-12-12T11:02:01.140Z,55128.5
2018-12-12T11:03:01.224Z,57183.3
2018-12-12T11:04:01.086Z,59164.7
2018-12-12T11:05:01.092Z,61045.3
2018-12-12T11:06:01.058Z,62931.1
2018-12-12T11:07:01.081Z,63210.4
2018-12-12T11:08:01.229Z,65119.5
2018-12-12T11:13:01.257Z,65535.0
2018-12-12T11:14:01.069Z,64552.6
2018-12-12T11:15:01.092Z,64359.9
2018-12-12T11:16:02.017Z,64295.6
2018-12-12T11:22:01.300Z,64189.1
2018-12-12T11:23:01.126Z,63351.9
2018-12-12T11:24:01.096Z,62053.3
2018-12-12T11:25:01.102Z,60453.9
2018-12-12T11:26:01.060Z,58742.6
2018-12-12T11:27:01.204Z,57425.9
2018-12-12T11:28:01.109Z,56758.4
2018-12-12T11:29:02.201Z,57266.8
2018-12-12T11:30:01.094Z,57459.5
2018-12-12T11:31:01.094Z,56659.0
2018-12-12T11:32:01.237Z,55686.2
2018-12-12T11:33:01.129Z,55241.2
2018-12-12T11:34:01.063Z,54883.3
2018-12-12T11:35:01.062Z,54300.6
2018-12-12T11:36:01.095Z,53979.9
2018-12-12T11:37:01.358Z,54086.5
2018-12-12T11:38:01.129Z,54923.6
2018-12-12T11:39:01.099Z,55792.1
2018-12-12T11:40:01.102Z,56254.6
2018-12-12T11:41:01.107Z,56247.6
2018-12-12T11:42:01.248Z,55823.6
2018-12-12T11:43:01.188Z,54867.6
2018-12-12T11:44:01.098Z,53869.7
2018-12-12T11:45:01.102Z,52504.6
2018-12-12T11:46:01.099Z,52160.9
2018-12-12T11:47:01.205Z,52146.4
2018-12-12T11:48:01.149Z,51232.1
2018-12-12T11:49:01.097Z,49659.9
2018-12-12T11:50:01.066Z,47928.9
2018-12-12T11:51:01.102Z,45970.1
2018-12-12T11:52:01.244Z,43810.5
2018-12-12T11:53:01.137Z,41906.0
2018-12-12T11:54:01.099Z,40497.1
2018-12-12T11:55:02.105Z,39621.9
2018-12-12T11:56:01.101Z,39505.9
2018-12-12T11:57:01.208Z,39871.5
2018-12-12T11:58:06.101Z,40804.6
2018-12-12T12:00:01.087Z,42276.5
2018-12-12T12:01:01.051Z,43641.6
2018-12-12T12:02:01.231Z,44850.1
2018-12-12T12:03:01.125Z,45647.9
2018-12-12T12:04:01.085Z,46433.0
2018-12-12T12:05:01.088Z,47908.9
2018-12-12T12:06:01.091Z,50222.6
2018-12-12T12:07:01.963Z,52502.0
2018-12-12T12:08:01.096Z,54661.7
2018-12-12T12:09:06.089Z,56566.1
2018-12-12T12:10:01.092Z,58405.2
2018-12-12T12:11:01.058Z,60417.3
2018-12-12T12:12:01.234Z,62251.6
2018-12-12T12:13:01.060Z,63626.7
2018-12-12T12:14:06.101Z,64317.1
2018-12-12T12:15:01.089Z,64317.1
2018-12-12T12:18:01.094Z,64293.3
2018-12-12T12:19:06.103Z,64867.5
2018-12-12T12:20:01.175Z,65321.7
2018-12-12T12:24:06.096Z,64193.8
2018-12-12T12:25:01.065Z,62712.3
2018-12-12T12:26:01.071Z,61140.7
2018-12-12T12:27:01.302Z,59554.4
2018-12-12T12:28:01.096Z,57882.6
2018-12-12T12:29:01.138Z,55995.1
2018-12-12T12:30:01.101Z,53821.2
2018-12-12T12:31:01.063Z,51438.1
2018-12-12T12:32:01.242Z,48996.9
2018-12-12T12:33:01.169Z,46874.6
2018-12-12T12:34:03.288Z,44774.3
2018-12-12T12:35:01.099Z,43025.3
2018-12-12T12:37:01.198Z,41474.8
2018-12-12T12:38:01.127Z,39684.1
2018-12-12T12:39:01.851Z,37601.1
2018-12-12T12:40:01.093Z,36502.7
2018-12-12T12:41:01.086Z,35763.5
2018-12-12T12:42:01.226Z,35153.5
2018-12-12T12:43:01.094Z,34384.9
2018-12-12T12:44:01.087Z,33301.6
2018-12-12T12:45:06.096Z,32134.9
2018-12-12T12:46:01.055Z,31049.3
2018-12-12T12:47:01.227Z,30029.4
2018-12-12T12:48:01.088Z,28967.1
2018-12-12T12:49:01.092Z,27771.9
2018-12-12T12:50:06.101Z,26380.7
2018-12-12T12:51:01.881Z,24660.0
2018-12-12T12:52:01.297Z,22712.0
2018-12-12T12:53:01.054Z,20987.3
2018-12-12T12:54:01.089Z,19533.5
2018-12-12T12:55:01.111Z,18179.0
2018-12-12T12:56:01.093Z,16851.0
2018-12-12T12:57:01.228Z,15598.0
2018-12-12T12:58:01.122Z,14651.3
2018-12-12T12:59:01.091Z,14267.1
2018-12-12T13:00:06.100Z,14384.4
2018-12-12T13:01:01.089Z,14963.8
2018-12-12T13:02:01.230Z,15922.9
2018-12-12T13:03:01.091Z,17068.9
2018-12-12T13:04:01.094Z,18229.8
2018-12-12T13:05:01.118Z,19308.4
2018-12-12T13:06:01.090Z,20325.5
2018-12-12T13:07:01.258Z,21288.9
2018-12-12T13:08:02.010Z,22151.1
2018-12-12T13:09:01.059Z,22931.5
2018-12-12T13:10:01.120Z,23726.7
2018-12-12T13:11:01.091Z,24495.7
2018-12-12T13:12:01.277Z,25090.8
2018-12-12T13:13:01.064Z,25532.9
2018-12-12T13:14:01.070Z,25743.2
2018-12-12T13:15:06.101Z,25654.7
2018-12-12T13:16:01.060Z,25339.0
2018-12-12T13:17:01.225Z,24867.1
2018-12-12T13:18:01.095Z,24315.4
2018-12-12T13:19:01.093Z,23744.9
2018-12-12T13:20:01.129Z,23157.4
2018-12-12T13:21:02.125Z,22600.2
2018-12-12T13:22:01.237Z,22160.1
2018-12-12T13:23:01.098Z,21834.9
2018-12-12T13:24:01.099Z,21679.5
2018-12-12T13:25:06.101Z,21592.1
2018-12-12T13:26:01.094Z,21464.8
2018-12-12T13:27:01.272Z,21332.7
2018-12-12T13:28:01.099Z,21161.4
2018-12-12T13:29:01.070Z,21027.4
2018-12-12T13:31:01.151Z,20815.3
2018-12-12T13:32:01.287Z,20484.3
2018-12-12T13:33:01.229Z,20084.7
2018-12-12T13:34:01.052Z,19729.0
2018-12-12T13:35:01.110Z,19488.7
2018-12-12T13:36:01.085Z,19366.7
2018-12-12T13:37:01.234Z,19188.9
2018-12-12T13:38:01.910Z,18907.0
2018-12-12T13:39:01.085Z,18623.1
2018-12-12T13:40:01.113Z,18341.0
2018-12-12T13:41:01.100Z,18147.9
2018-12-12T13:42:01.292Z,18110.1
2018-12-12T13:43:01.088Z,18185.6
2018-12-12T13:44:01.089Z,18320.5
2018-12-12T13:45:01.115Z,18482.7
2018-12-12T13:46:01.055Z,18741.1
2018-12-12T13:47:01.230Z,18944.9
2018-12-12T13:48:01.059Z,18976.4
2018-12-12T13:49:01.056Z,18868.7
2018-12-12T13:50:01.091Z,18653.9
2018-12-12T13:51:01.061Z,18390.9
2018-12-12T13:52:01.228Z,18207.0
2018-12-12T13:53:01.129Z,18089.4
2018-12-12T13:54:01.095Z,17958.8
2018-12-12T13:55:01.093Z,17735.4
2018-12-12T13:56:02.171Z,17331.0
2018-12-12T13:57:01.239Z,16751.1
2018-12-12T13:58:01.096Z,16105.3
2018-12-12T13:59:01.096Z,15455.4
2018-12-12T14:00:01.099Z,14788.2
2018-12-12T14:01:01.102Z,14169.2
2018-12-12T14:02:01.236Z,13658.2
2018-12-12T14:03:01.097Z,13252.1
2018-12-12T14:04:01.097Z,12877.9
2018-12-12T14:05:01.095Z,12482.1
2018-12-12T14:06:01.068Z,12042.8
2018-12-12T14:07:01.265Z,11569.8
2018-12-12T14:08:01.066Z,11081.8
2018-12-12T14:09:01.353Z,10596.1
2018-12-12T14:10:01.067Z,10134.9
2018-12-12T14:11:01.102Z,9733.5
2018-12-12T14:12:01.239Z,9402.6
2018-12-12T14:13:01.066Z,9134.2
2018-12-12T14:15:01.053Z,8977.6
2018-12-12T14:16:01.049Z,8876.7
2018-12-12T14:17:01.270Z,8801.7
2018-12-12T14:18:01.054Z,8730.3
2018-12-12T14:19:01.082Z,8644.7
2018-12-12T14:20:01.129Z,8540.5
2018-12-12T14:21:01.092Z,8421.9
2018-12-12T14:22:01.260Z,8296.1
2018-12-12T14:23:01.089Z,8174.2
2018-12-12T14:24:01.087Z,8055.2
2018-12-12T14:25:01.086Z,7907.5
2018-12-12T14:26:01.109Z,7704.5
2018-12-12T14:27:01.233Z,7455.9
2018-12-12T14:28:01.091Z,7162.7
2018-12-12T14:29:01.052Z,6810.5
2018-12-12T14:30:01.086Z,6351.5
2018-12-12T14:31:01.087Z,5843.7
2018-12-12T14:32:01.235Z,5299.6
2018-12-12T14:33:01.085Z,4752.1
2018-12-12T14:34:01.089Z,4258.9
2018-12-12T14:35:01.056Z,3832.7
2018-12-12T14:36:01.251Z,3455.7
2018-12-12T14:37:01.234Z,3114.7
2018-12-12T14:38:01.056Z,2790.8
2018-12-12T14:39:02.101Z,2478.3
2018-12-12T14:40:01.055Z,2210.0
2018-12-12T14:41:01.093Z,2004.5
2018-12-12T14:42:01.230Z,1838.3
2018-12-12T14:43:01.088Z,1694.9
2018-12-12T14:44:01.057Z,1557.0
2018-12-12T14:45:01.088Z,1412.3
2018-12-12T14:46:01.112Z,1281.9
2018-12-12T14:47:01.372Z,1192.5
2018-12-12T14:48:01.087Z,1138.7
2018-12-12T14:49:01.055Z,1098.3
2018-12-12T14:50:01.118Z,1062.0
2018-12-12T14:51:01.126Z,1028.5
2018-12-12T14:52:02.418Z,995.5
2018-12-12T14:53:01.124Z,959.9
2018-12-12T14:54:01.055Z,926.7
2018-12-12T14:55:01.057Z,903.7
2018-12-12T14:56:01.090Z,884.7
2018-12-12T14:57:01.234Z,870.3
2018-12-12T14:58:01.126Z,862.9
2018-12-12T14:59:01.062Z,864.2
2018-12-12T15:00:01.099Z,869.9
2018-12-12T15:01:01.092Z,872.7
2018-12-12T15:02:01.239Z,871.9
2018-12-12T15:03:01.095Z,869.1
2018-12-12T15:04:01.101Z,864.6
2018-12-12T15:05:01.096Z,858.6
2018-12-12T15:06:01.064Z,853.2
2018-12-12T15:07:01.286Z,846.5
2018-12-12T15:08:01.129Z,837.5
2018-12-12T15:09:02.113Z,826.7
2018-12-12T15:10:01.101Z,804.2
2018-12-12T15:11:01.097Z,768.3
2018-12-12T15:12:01.246Z,726.1
2018-12-12T15:13:01.130Z,681.4
2018-12-12T15:14:01.094Z,634.9
2018-12-12T15:15:01.095Z,588.5
2018-12-12T15:16:01.095Z,544.1
2018-12-12T15:17:01.244Z,500.6
2018-12-12T15:18:01.106Z,456.3
2018-12-12T15:19:01.063Z,413.1
2018-12-12T15:20:01.096Z,374.0
2018-12-12T15:21:01.066Z,339.7
2018-12-12T15:22:01.241Z,309.9
2018-12-12T15:23:01.763Z,283.3
2018-12-12T15:25:01.086Z,258.9
2018-12-12T15:26:01.082Z,236.5
2018-12-12T15:27:01.253Z,215.2
2018-12-12T15:28:01.081Z,194.5
2018-12-12T15:29:06.093Z,173.9
2018-12-12T15:30:01.085Z,153.9
2018-12-12T15:31:01.090Z,134.5
2018-12-12T15:32:01.235Z,116.3
2018-12-12T15:33:01.088Z,99.8
2018-12-12T15:34:01.086Z,86.0
2018-12-12T15:35:06.098Z,74.8
2018-12-12T15:36:01.082Z,65.4
2018-12-12T15:37:01.227Z,57.2
2018-12-12T15:38:01.459Z,49.8
2018-12-12T15:39:01.088Z,43.0
2018-12-12T15:40:06.100Z,36.9
2018-12-12T15:41:01.055Z,31.0
2018-12-12T15:42:03.044Z,25.6
2018-12-12T15:43:01.084Z,20.9
2018-12-12T15:44:01.087Z,17.0
2018-12-12T15:45:06.090Z,13.8
2018-12-12T15:46:01.055Z,11.3
2018-12-12T15:47:01.228Z,9.4
2018-12-12T15:48:01.095Z,7.9
2018-12-12T15:49:01.092Z,6.7
2018-12-12T15:50:06.103Z,5.9
2018-12-12T15:51:01.090Z,5.1
2018-12-12T15:52:01.236Z,4.5
2018-12-12T15:53:01.089Z,4.0
2018-12-12T15:54:01.094Z,3.5
2018-12-12T15:55:01.126Z,3.0
2018-12-12T15:56:02.167Z,2.7
2018-12-12T15:57:01.296Z,2.4
2018-12-12T15:58:01.134Z,2.1
2018-12-12T15:59:01.066Z,1.9
2018-12-12T16:00:06.103Z,1.7
2018-12-12T16:01:01.059Z,1.6
2018-12-12T16:02:01.232Z,1.5
2018-12-12T16:03:01.099Z,1.3
2018-12-12T16:04:06.104Z,1.1
2018-12-12T16:05:01.061Z,1.0
2018-12-12T16:06:01.094Z,0.9
2018-12-12T16:07:01.256Z,0.7
2018-12-12T16:08:01.063Z,0.6
2018-12-12T16:09:06.101Z,0.5
2018-12-12T16:11:01.220Z,0.4
2018-12-12T16:12:01.233Z,0.3
2018-12-12T16:14:01.122Z,0.2
2018-12-12T16:15:01.093Z,0.1
